Time;durP1;ratioP1;P1;durP2;ratioP2;P2;SDS_P1;SDS_P2;PMS_P1;PMS_P2;Temp;Humidity;BMP_temperature;BMP_pressure;BME280_temperature;BME280_humidity;BME280_pressure;Samples;Min_cycle;Max_cycle;Signal;HPM_P1;HPM_P2
2021/12/19 00:02:19;;;;;;;9.98;7.60;;;;;;;4.46;51.05;102031.03;5068893;28;20868;-63
2021/12/19 00:08:27;;;;;;;10.35;7.25;;;;;;;4.35;51.43;102027.91;5068568;28;20811;-63
2021/12/19 00:10:28;;;;;;;10.57;6.90;;;;;;;4.39;51.31;102013.78;5068786;28;20830;-63
2021/12/19 00:12:57;;;;;;;9.48;6.45;;;;;;;4.50;51.13;102016.88;5052023;28;20869;-63
2021/12/19 00:15:25;;;;;;;8.63;6.13;;;;;;;4.61;50.70;102008.59;5068357;28;20847;-63
2021/12/19 00:17:52;;;;;;;8.60;6.15;;;;;;;4.64;50.75;102002.38;5068161;28;20418;-63
2021/12/19 00:20:19;;;;;;;8.00;6.55;;;;;;;4.72;50.54;102000.31;5069585;28;20427;-63
2021/12/19 00:22:46;;;;;;;8.77;6.50;;;;;;;4.85;50.08;101998.97;5068522;28;20872;-63
2021/12/19 00:25:13;;;;;;;9.07;6.40;;;;;;;4.97;49.61;102003.72;5068192;28;20510;-63
2021/12/19 00:27:40;;;;;;;8.27;6.25;;;;;;;5.12;49.23;102004.03;5069127;28;20407;-63
2021/12/19 00:30:07;;;;;;;8.57;6.17;;;;;;;5.15;49.23;101998.66;5067321;28;20497;-63
2021/12/19 00:32:36;;;;;;;8.97;6.77;;;;;;;5.17;49.05;102005.59;5068005;28;20413;-63
2021/12/19 00:35:03;;;;;;;9.15;6.40;;;;;;;5.18;49.18;102001.19;5069633;28;20490;-63
2021/12/19 00:37:30;;;;;;;9.95;8.35;;;;;;;5.23;49.00;101996.59;5067558;28;20445;-63
2021/12/19 00:39:57;;;;;;;11.40;10.30;;;;;;;5.24;48.82;102000.94;5067787;28;21546;-63
2021/12/19 00:42:29;;;;;;;8.43;6.50;;;;;;;5.35;48.63;102006.63;5067605;28;20493;-64
2021/12/19 00:45:00;;;;;;;8.15;6.35;;;;;;;5.37;48.55;102010.06;5067255;28;20497;-64
2021/12/19 00:47:27;;;;;;;9.65;6.78;;;;;;;5.34;48.44;102006.69;5059023;28;20653;-63
2021/12/19 00:49:57;;;;;;;9.60;7.35;;;;;;;5.55;48.03;102007.56;5061270;28;21272;-63
2021/12/19 00:52:24;;;;;;;9.63;7.32;;;;;;;5.46;48.18;102006.19;5068223;28;20407;-63
2021/12/19 00:54:51;;;;;;;10.82;7.30;;;;;;;5.51;48.25;102006.00;5067443;28;20407;-63
2021/12/19 00:57:18;;;;;;;9.52;6.97;;;;;;;5.30;48.47;101998.06;5068024;28;20494;-63
2021/12/19 00:59:45;;;;;;;9.77;6.85;;;;;;;5.34;48.55;101993.53;5069043;28;20514;-63
2021/12/19 01:02:12;;;;;;;7.75;6.60;;;;;;;5.36;48.35;101996.97;5068275;28;20766;-63
2021/12/19 01:04:39;;;;;;;12.13;8.30;;;;;;;5.23;48.75;101999.22;5068302;28;20509;-63
2021/12/19 01:07:07;;;;;;;13.70;9.82;;;;;;;5.44;48.48;101999.28;5069485;28;20443;-64
2021/12/19 01:09:34;;;;;;;14.40;10.60;;;;;;;5.52;48.22;101997.19;5069043;28;20410;-63
2021/12/19 01:12:02;;;;;;;13.98;9.70;;;;;;;5.43;48.44;101985.28;5069298;28;20991;-63
2021/12/19 01:14:29;;;;;;;12.68;8.73;;;;;;;5.49;48.22;101982.38;5069012;28;20793;-63
2021/12/19 01:16:56;;;;;;;11.93;8.40;;;;;;;5.37;48.39;101975.88;5069404;28;20414;-63
2021/12/19 01:19:24;;;;;;;11.70;8.30;;;;;;;5.36;48.49;101974.16;5067912;28;20438;-63
2021/12/19 01:21:51;;;;;;;9.10;7.43;;;;;;;5.42;48.12;101968.66;5067384;28;20419;-63
2021/12/19 01:24:20;;;;;;;11.02;7.30;;;;;;;5.55;48.14;101970.78;5067762;28;20908;-63
2021/12/19 01:26:46;;;;;;;9.32;7.43;;;;;;;5.65;47.73;101969.47;5069407;28;20418;-63
2021/12/19 01:29:14;;;;;;;10.05;7.63;;;;;;;5.44;48.21;101965.13;5068891;28;20409;-63
2021/12/19 01:31:42;;;;;;;9.45;7.05;;;;;;;5.61;47.90;101966.09;5068890;28;20423;-63
2021/12/19 01:34:12;;;;;;;9.13;6.65;;;;;;;5.45;48.15;101972.91;5068931;28;20505;-63
2021/12/19 01:36:40;;;;;;;9.07;6.60;;;;;;;5.46;48.57;101969.38;5068540;28;20407;-63
2021/12/19 01:39:07;;;;;;;8.95;6.57;;;;;;;5.56;48.05;101956.72;5067036;28;20415;-63
2021/12/19 01:41:42;;;;;;;8.52;6.30;;;;;;;5.56;48.01;101957.56;5072271;28;20407;-63
2021/12/19 01:44:10;;;;;;;8.77;6.65;;;;;;;5.39;48.47;101946.91;5072145;28;20909;-63
2021/12/19 01:46:37;;;;;;;8.48;6.05;;;;;;;5.47;48.22;101952.69;5071101;28;21007;-63
2021/12/19 01:49:04;;;;;;;9.02;6.20;;;;;;;5.62;47.82;101944.16;5071251;28;20407;-63
2021/12/19 01:51:31;;;;;;;8.10;6.35;;;;;;;5.60;47.92;101946.00;5070746;28;20817;-63
2021/12/19 01:53:58;;;;;;;7.47;5.95;;;;;;;5.54;47.89;101937.53;5071833;28;20422;-63
2021/12/19 01:56:25;;;;;;;11.20;6.60;;;;;;;5.67;47.70;101933.44;5072529;28;20497;-63
2021/12/19 01:58:54;;;;;;;8.77;6.25;;;;;;;5.64;47.81;101930.97;5072957;28;20494;-63
2021/12/19 02:01:20;;;;;;;9.68;6.47;;;;;;;5.71;47.80;101918.41;5072663;28;20514;-63
2021/12/19 02:03:47;;;;;;;9.57;6.57;;;;;;;5.66;47.68;101921.25;5062363;28;20411;-65
2021/12/19 02:06:15;;;;;;;10.25;6.90;;;;;;;5.61;47.89;101920.56;5052635;28;20407;-63
2021/12/19 02:08:42;;;;;;;9.20;6.95;;;;;;;5.53;48.12;101922.66;5070607;28;20961;-63
2021/12/19 02:11:09;;;;;;;9.35;6.85;;;;;;;5.50;48.13;101912.31;5071809;28;20413;-63
2021/12/19 02:13:37;;;;;;;9.50;7.40;;;;;;;5.50;48.00;101899.16;5072294;28;20761;-63
2021/12/19 02:16:06;;;;;;;9.00;6.70;;;;;;;5.31;48.48;101892.06;5072447;28;20417;-63
2021/12/19 02:18:33;;;;;;;10.43;7.20;;;;;;;5.53;48.01;101901.63;5072371;28;20481;-63
2021/12/19 02:21:01;;;;;;;11.38;7.28;;;;;;;5.48;48.05;101886.06;5071540;28;20423;-63
2021/12/19 02:23:30;;;;;;;11.85;8.05;;;;;;;5.49;48.15;101892.19;5070044;28;20403;-63
2021/12/19 02:25:58;;;;;;;9.70;7.25;;;;;;;5.61;47.72;101889.03;5071654;28;20426;-64
2021/12/19 02:28:25;;;;;;;11.25;7.90;;;;;;;5.53;47.79;101893.75;5071716;28;20411;-63
2021/12/19 02:30:53;;;;;;;8.90;7.10;;;;;;;5.34;48.44;101885.81;5071156;28;20827;-63
2021/12/19 02:33:23;;;;;;;8.47;7.50;;;;;;;5.46;48.21;101887.06;5072065;28;20536;-64
2021/12/19 02:35:57;;;;;;;9.70;7.23;;;;;;;5.50;48.06;101891.28;5072039;28;20417;-64
2021/12/19 02:49:24;;;;;;;11.65;8.82;;;;;;;5.13;48.81;101859.50;5071592;28;20405;-63
2021/12/19 02:51:52;;;;;;;12.43;9.20;;;;;;;5.15;48.80;101849.81;5071005;28;20411;-63
2021/12/19 02:54:21;;;;;;;11.13;8.40;;;;;;;5.05;49.13;101852.84;5071429;28;20419;-64
2021/12/19 02:56:49;;;;;;;11.18;8.10;;;;;;;4.90;49.53;101841.22;5070268;28;20443;-63
2021/12/19 02:59:16;;;;;;;10.75;7.88;;;;;;;4.88;49.71;101846.53;5069538;28;20904;-63
2021/12/19 03:01:45;;;;;;;9.70;7.97;;;;;;;4.92;49.63;101842.84;5070144;28;20445;-63
2021/12/19 03:04:12;;;;;;;10.73;8.35;;;;;;;4.77;49.61;101838.25;5071147;28;20421;-63
2021/12/19 03:06:45;;;;;;;252.25;136.35;;;;;;;4.79;49.78;101833.78;5071138;28;20494;-63
2021/12/19 03:09:13;;;;;;;112.50;56.55;;;;;;;4.60;50.23;101839.78;5071316;28;20413;-63
2021/12/19 03:12:04;;;;;;;11.63;9.17;;;;;;;4.60;50.31;101831.91;5071480;28;20411;-64
2021/12/19 03:20:00;;;;;;;17.27;15.57;;;;;;;4.67;50.18;101815.91;5070989;28;20804;-63
2021/12/19 03:22:28;;;;;;;23.00;20.90;;;;;;;4.61;50.38;101817.84;5071101;28;20538;-63
2021/12/19 03:24:54;;;;;;;14.27;10.82;;;;;;;4.57;50.54;101811.00;5071434;28;20429;-63
2021/12/19 03:27:23;;;;;;;14.40;12.18;;;;;;;4.59;50.42;101810.97;5070893;28;21003;-63
2021/12/19 03:29:50;;;;;;;12.90;10.10;;;;;;;4.63;50.47;101823.03;5070902;28;20490;-63
2021/12/19 03:32:17;;;;;;;15.50;13.07;;;;;;;4.63;50.24;101812.53;5057267;28;20494;-64
2021/12/19 03:34:44;;;;;;;13.13;11.32;;;;;;;4.63;50.50;101809.06;5063210;28;20497;-63
2021/12/19 03:37:11;;;;;;;14.73;12.30;;;;;;;4.62;50.31;101810.81;5068809;28;20498;-63
2021/12/19 03:39:55;;;;;;;12.30;10.55;;;;;;;4.46;50.73;101805.38;5070550;28;20825;-63
2021/12/19 03:42:24;;;;;;;17.00;13.60;;;;;;;4.76;50.10;101811.13;5070760;28;20467;-63
2021/12/19 03:44:51;;;;;;;15.32;13.50;;;;;;;4.65;50.21;101807.25;5052903;28;20410;-63
2021/12/19 03:47:18;;;;;;;15.77;13.05;;;;;;;4.66;49.98;101801.06;5070729;28;20501;-63
2021/12/19 03:49:46;;;;;;;15.53;13.93;;;;;;;4.64;50.17;101800.28;5070113;28;20470;-63
2021/12/19 03:52:13;;;;;;;16.98;15.18;;;;;;;4.51;50.58;101800.78;5070079;28;20407;-63
2021/12/19 03:54:40;;;;;;;18.30;16.40;;;;;;;4.47;50.58;101798.34;5070327;28;20494;-63
2021/12/19 03:57:07;;;;;;;13.80;11.23;;;;;;;4.43;50.87;101800.22;5070009;28;20506;-63
2021/12/19 03:59:36;;;;;;;13.38;11.02;;;;;;;4.31;50.99;101796.31;5069775;28;20419;-63
2021/12/19 04:02:03;;;;;;;12.52;9.93;;;;;;;4.28;50.93;101785.94;5068715;28;20427;-64
2021/12/19 04:04:35;;;;;;;16.00;13.93;;;;;;;4.34;50.98;101790.06;5066967;28;21107;-63
2021/12/19 04:07:02;;;;;;;15.98;13.98;;;;;;;4.32;50.97;101799.78;5070198;28;20488;-63
2021/12/19 04:09:29;;;;;;;13.60;10.50;;;;;;;4.21;51.32;101784.47;5069613;28;20493;-63
2021/12/19 04:11:56;;;;;;;18.80;16.67;;;;;;;4.25;51.32;101790.47;5069813;28;20980;-63
2021/12/19 04:14:23;;;;;;;17.52;15.82;;;;;;;4.18;51.53;101779.34;5069994;28;20434;-63
2021/12/19 04:16:51;;;;;;;15.02;13.52;;;;;;;4.25;51.27;101775.56;5069986;28;20468;-63
2021/12/19 04:19:20;;;;;;;18.13;16.23;;;;;;;4.19;51.33;101771.41;5069446;28;20411;-63
2021/12/19 04:21:47;;;;;;;19.55;17.63;;;;;;;4.09;51.62;101775.31;5069685;28;20484;-63
2021/12/19 04:24:14;;;;;;;16.65;14.82;;;;;;;4.16;51.61;101766.28;5069507;28;20485;-63
2021/12/19 04:26:41;;;;;;;15.90;12.75;;;;;;;4.10;51.68;101761.28;5051888;28;20984;-63
2021/12/19 04:29:08;;;;;;;18.25;15.35;;;;;;;4.09;52.01;101756.94;5069909;28;20521;-63
2021/12/19 04:31:35;;;;;;;25.20;22.70;;;;;;;4.02;51.98;101768.59;5068160;28;20421;-66
2021/12/19 04:34:04;;;;;;;22.10;19.10;;;;;;;4.10;51.90;101757.81;5056920;28;20480;-63
2021/12/19 04:36:36;;;;;;;17.40;15.32;;;;;;;4.08;51.61;101763.13;5069392;28;20490;-63
2021/12/19 04:39:31;;;;;;;17.38;13.45;;;;;;;4.10;51.86;101749.97;5069726;28;20484;-63
2021/12/19 04:53:14;;;;;;;19.73;16.52;;;;;;;4.10;52.22;101724.56;5069403;28;20492;-63
2021/12/19 05:01:14;;;;;;;19.30;16.08;;;;;;;4.27;52.26;101709.94;5035438;28;20430;-62
2021/12/19 05:03:47;;;;;;;23.23;18.00;;;;;;;4.22;52.46;101710.97;5069424;28;20498;-63
2021/12/19 05:06:31;;;;;;;19.90;16.75;;;;;;;4.17;52.55;101704.19;5069446;28;20524;-63
2021/12/19 05:14:38;;;;;;;23.65;21.27;;;;;;;4.29;52.42;101694.97;5068466;28;20973;-63
2021/12/19 05:17:08;;;;;;;18.17;14.50;;;;;;;4.24;52.72;101689.94;5073194;28;20926;-62
2021/12/19 05:19:45;;;;;;;18.52;16.15;;;;;;;4.35;52.67;101692.09;5073437;28;20410;-62
2021/12/19 05:22:14;;;;;;;18.20;15.40;;;;;;;4.42;52.41;101704.06;5073340;28;20435;-62
2021/12/19 05:24:48;;;;;;;21.83;19.37;;;;;;;4.47;52.32;101704.72;5073448;28;20440;-63
2021/12/19 05:27:16;;;;;;;24.10;21.60;;;;;;;4.53;52.20;101693.13;5072927;28;20417;-63
2021/12/19 05:29:43;;;;;;;17.48;14.13;;;;;;;4.40;52.41;101690.16;5072800;28;20425;-63
2021/12/19 05:32:10;;;;;;;18.00;15.98;;;;;;;4.35;52.87;101686.84;5058201;28;21281;-64
2021/12/19 05:34:37;;;;;;;25.95;23.45;;;;;;;4.38;52.84;101677.09;5071997;28;20493;-63
2021/12/19 05:45:18;;;;;;;21.65;16.45;;;;;;;4.56;52.73;101685.09;5072592;28;20429;-62
2021/12/19 05:47:47;;;;;;;19.13;16.55;;;;;;;4.45;53.15;101672.44;5072528;28;20502;-63
2021/12/19 05:50:15;;;;;;;15.65;13.95;;;;;;;4.43;53.13;101669.03;5072795;28;20422;-62
2021/12/19 05:52:42;;;;;;;18.80;16.67;;;;;;;4.57;52.81;101673.69;5072635;28;20405;-63
2021/12/19 05:55:11;;;;;;;20.30;17.92;;;;;;;4.68;52.70;101668.81;5072209;28;20492;-63
2021/12/19 05:57:38;;;;;;;24.10;20.25;;;;;;;4.82;52.28;101665.63;5072608;28;20410;-63
2021/12/19 06:00:07;;;;;;;27.83;21.65;;;;;;;4.93;52.16;101666.00;5072297;28;20407;-62
2021/12/19 06:02:34;;;;;;;29.17;24.13;;;;;;;5.13;51.65;101657.25;5072106;28;20933;-63
2021/12/19 06:05:01;;;;;;;38.58;32.03;;;;;;;5.30;51.24;101664.34;5072089;28;20983;-63
2021/12/19 06:07:28;;;;;;;25.75;21.65;;;;;;;5.51;50.82;101659.03;5071927;28;20417;-62
2021/12/19 06:09:56;;;;;;;28.67;22.27;;;;;;;5.81;49.98;101652.31;5072659;28;20407;-63
2021/12/19 06:12:24;;;;;;;36.92;28.52;;;;;;;6.57;48.45;101644.25;5072273;28;20403;-63
2021/12/19 06:14:51;;;;;;;34.88;26.35;;;;;;;7.36;46.38;101656.78;5071970;28;20498;-63
2021/12/19 06:17:18;;;;;;;33.97;27.73;;;;;;;8.14;44.58;101648.91;5071792;28;20406;-63
2021/12/19 06:19:45;;;;;;;23.70;19.77;;;;;;;8.73;43.18;101645.50;5071843;28;20411;-63
2021/12/19 06:22:12;;;;;;;22.45;18.20;;;;;;;9.63;41.27;101647.84;5072077;28;20510;-63
2021/12/19 06:24:39;;;;;;;25.27;20.30;;;;;;;10.12;40.13;101635.00;5072086;28;20411;-63
2021/12/19 06:27:06;;;;;;;23.08;18.20;;;;;;;10.97;38.44;101631.00;5070706;28;20417;-63
2021/12/19 06:29:34;;;;;;;19.73;16.25;;;;;;;11.60;37.18;101628.31;5071734;28;20421;-65
2021/12/19 06:32:02;;;;;;;20.57;15.90;;;;;;;12.01;36.17;101630.59;5060489;28;20482;-65
2021/12/19 06:34:28;;;;;;;20.83;16.13;;;;;;;13.36;34.16;101627.38;5068426;28;20402;-64
2021/12/19 06:36:55;;;;;;;20.33;17.13;;;;;;;14.20;32.74;101627.56;5071889;28;20411;-64
2021/12/19 06:39:23;;;;;;;26.23;22.38;;;;;;;15.14;31.58;101613.41;5071873;28;20411;-64
2021/12/19 06:41:51;;;;;;;26.15;23.38;;;;;;;15.66;29.93;101613.25;5071524;28;20442;-63
2021/12/19 06:44:18;;;;;;;21.10;15.20;;;;;;;16.32;29.46;101612.56;5071781;28;21439;-64
2021/12/19 06:46:47;;;;;;;17.50;14.43;;;;;;;17.00;28.36;101617.78;5071733;28;20987;-64
2021/12/19 06:49:14;;;;;;;18.13;15.55;;;;;;;16.61;28.05;101616.06;5071431;28;20506;-64
2021/12/19 06:51:41;;;;;;;20.15;18.05;;;;;;;15.31;29.38;101610.09;5071587;28;20506;-64
2021/12/19 06:54:07;;;;;;;35.20;31.52;;;;;;;13.91;31.24;101615.81;5071292;28;20406;-64
2021/12/19 06:56:34;;;;;;;20.67;18.08;;;;;;;12.36;34.01;101610.31;5071284;28;20449;-63
2021/12/19 06:59:02;;;;;;;21.42;19.13;;;;;;;11.66;35.21;101616.38;5071118;28;20911;-64
2021/12/19 07:01:28;;;;;;;19.50;17.40;;;;;;;11.74;35.61;101609.56;5071053;28;20514;-63
2021/12/19 07:03:57;;;;;;;21.83;19.53;;;;;;;13.42;32.92;101597.59;5071127;28;20574;-64
2021/12/19 07:06:24;;;;;;;18.95;15.48;;;;;;;16.39;28.83;101598.50;5071165;28;20924;-64
2021/12/19 07:08:51;;;;;;;17.77;14.57;;;;;;;18.44;26.32;101596.47;5071149;28;20967;-64
2021/12/19 07:11:17;;;;;;;14.23;12.73;;;;;;;20.13;23.88;101595.59;5071380;28;20792;-65
2021/12/19 07:13:44;;;;;;;15.45;13.35;;;;;;;21.95;22.24;101602.00;5070943;28;20490;-64
2021/12/19 07:16:11;;;;;;;16.70;14.10;;;;;;;22.80;20.96;101601.72;5070884;28;20407;-65
2021/12/19 07:18:39;;;;;;;17.17;13.90;;;;;;;23.80;19.50;101594.00;5070834;28;20498;-64
2021/12/19 07:21:08;;;;;;;16.63;14.90;;;;;;;25.22;18.17;101583.97;5071075;28;20430;-66
2021/12/19 07:23:35;;;;;;;13.00;11.65;;;;;;;25.26;18.05;101591.50;5071125;28;20414;-64
2021/12/19 07:26:03;;;;;;;16.70;14.88;;;;;;;26.79;16.63;101596.22;5071008;28;20407;-65
2021/12/19 07:28:30;;;;;;;15.15;13.55;;;;;;;27.05;16.38;101589.84;5070581;28;20414;-65
2021/12/19 07:30:57;;;;;;;14.30;12.80;;;;;;;26.90;16.75;101584.66;5070582;28;20414;-65
2021/12/19 07:33:25;;;;;;;14.18;12.70;;;;;;;27.59;15.70;101579.53;5054659;28;20941;-62
2021/12/19 07:35:53;;;;;;;14.88;13.00;;;;;;;28.13;15.27;101585.47;5070964;28;20924;-63
2021/12/19 07:38:27;;;;;;;14.52;12.73;;;;;;;28.36;15.23;101587.53;5070236;28;20489;-63
2021/12/19 07:40:56;;;;;;;15.00;13.40;;;;;;;28.64;14.91;101586.25;5070501;28;20458;-63
2021/12/19 07:43:23;;;;;;;15.00;13.27;;;;;;;29.33;14.34;101575.97;5070213;28;20408;-63
2021/12/19 07:45:50;;;;;;;14.70;12.23;;;;;;;29.43;14.00;101576.25;5070461;28;20427;-63
2021/12/19 07:48:17;;;;;;;15.65;13.95;;;;;;;30.14;13.58;101579.16;5070655;28;20442;-63
2021/12/19 07:50:44;;;;;;;14.77;12.70;;;;;;;30.33;13.44;101583.47;5070479;28;20411;-63
2021/12/19 07:53:11;;;;;;;14.10;12.68;;;;;;;31.37;12.67;101570.00;5070496;28;20426;-63
2021/12/19 07:55:39;;;;;;;14.70;13.20;;;;;;;32.39;11.93;101555.28;5070084;28;20769;-63
2021/12/19 07:58:06;;;;;;;14.53;12.90;;;;;;;31.62;12.26;101562.28;5070053;28;20415;-63
2021/12/19 08:00:34;;;;;;;14.73;13.20;;;;;;;32.10;12.10;101562.84;5069910;28;20927;-63
2021/12/19 08:03:01;;;;;;;11.38;10.27;;;;;;;31.40;12.23;101553.94;5070182;28;20509;-63
2021/12/19 08:05:28;;;;;;;12.97;11.37;;;;;;;32.03;12.21;101538.31;5069788;28;20789;-63
2021/12/19 08:08:00;;;;;;;15.95;13.18;;;;;;;31.17;12.42;101533.00;5070178;28;20407;-63
2021/12/19 08:13:14;;;;;;;15.90;14.00;;;;;;;32.42;11.82;101532.88;5069880;28;20981;-63
2021/12/19 08:15:41;;;;;;;14.70;13.10;;;;;;;32.70;11.71;101515.41;5070014;28;20407;-64
2021/12/19 08:18:08;;;;;;;13.57;11.70;;;;;;;34.77;10.27;101513.22;5070064;28;20407;-63
2021/12/19 08:20:36;;;;;;;12.27;10.98;;;;;;;35.52;9.99;101510.88;5069339;28;20421;-64
2021/12/19 08:23:03;;;;;;;13.15;11.80;;;;;;;32.97;11.17;101500.91;5069520;28;20510;-64
2021/12/19 08:25:30;;;;;;;12.98;11.73;;;;;;;31.58;12.12;101495.41;5069560;28;21203;-63
2021/12/19 08:27:57;;;;;;;12.03;10.80;;;;;;;28.00;14.49;101493.78;5069521;28;20411;-63
2021/12/19 08:30:27;;;;;;;14.48;12.57;;;;;;;26.77;15.61;101493.13;5069829;28;20498;-64
2021/12/19 08:32:56;;;;;;;13.57;11.00;;;;;;;29.22;13.36;101476.66;5054354;28;20415;-63
2021/12/19 08:35:25;;;;;;;11.38;9.70;;;;;;;30.30;13.14;101480.06;5069676;28;20411;-63
2021/12/19 08:37:52;;;;;;;14.07;12.57;;;;;;;25.33;16.22;101473.03;5068735;28;20951;-64
2021/12/19 08:40:19;;;;;;;13.27;11.88;;;;;;;21.58;19.73;101469.63;5068482;28;20411;-63
2021/12/19 08:42:46;;;;;;;14.10;12.60;;;;;;;19.74;22.04;101466.34;5068574;28;20426;-63
2021/12/19 08:45:15;;;;;;;17.80;13.15;;;;;;;18.53;23.65;101464.03;5068713;28;20415;-62
2021/12/19 08:47:43;;;;;;;15.40;11.90;;;;;;;21.32;20.63;101458.34;5068215;28;20904;-63
2021/12/19 08:50:11;;;;;;;15.35;12.80;;;;;;;25.04;17.53;101451.66;5067792;28;20411;-63
2021/12/19 08:52:39;;;;;;;12.23;10.30;;;;;;;27.00;15.72;101452.88;5068885;28;20418;-63
2021/12/19 08:55:08;;;;;;;11.55;10.35;;;;;;;28.47;14.57;101456.00;5069253;28;20411;-63
2021/12/19 08:57:35;;;;;;;11.75;10.35;;;;;;;27.03;15.08;101449.69;5068961;28;20497;-63
2021/12/19 09:00:03;;;;;;;14.27;12.57;;;;;;;29.38;13.87;101457.91;5069197;28;20449;-63
2021/12/19 09:02:30;;;;;;;12.73;11.40;;;;;;;28.63;14.18;101460.03;5069161;28;20962;-63
2021/12/19 09:04:58;;;;;;;14.77;13.25;;;;;;;29.12;13.82;101447.19;5069698;28;20411;-63
2021/12/19 09:07:25;;;;;;;15.18;11.52;;;;;;;27.01;15.28;101433.63;5069510;28;20474;-63
2021/12/19 09:09:52;;;;;;;14.45;12.85;;;;;;;26.79;15.72;101435.84;5069568;28;20411;-63
2021/12/19 09:12:19;;;;;;;15.38;12.82;;;;;;;24.83;17.52;101426.38;5069040;28;20421;-63
2021/12/19 09:14:46;;;;;;;14.57;12.52;;;;;;;22.87;19.09;101417.25;5068830;28;20447;-63
2021/12/19 09:17:13;;;;;;;17.58;13.10;;;;;;;21.20;20.89;101409.44;5069317;28;20415;-63
2021/12/19 09:19:41;;;;;;;15.48;13.15;;;;;;;19.61;22.53;101403.16;5069035;28;20780;-62
2021/12/19 09:22:09;;;;;;;17.37;13.40;;;;;;;19.10;23.16;101398.97;5069315;28;20422;-63
2021/12/19 09:24:36;;;;;;;18.20;13.18;;;;;;;18.80;23.90;101393.22;5069275;28;20416;-63
2021/12/19 09:27:04;;;;;;;15.55;12.85;;;;;;;17.53;25.39;101385.84;5068907;28;20975;-63
2021/12/19 09:29:31;;;;;;;16.88;13.02;;;;;;;16.86;26.00;101390.81;5068652;28;20419;-62
2021/12/19 09:31:59;;;;;;;16.80;13.40;;;;;;;16.19;26.92;101389.16;5057469;28;20395;-63
2021/12/19 09:34:27;;;;;;;20.17;12.68;;;;;;;16.42;26.99;101384.28;5062871;28;20452;-62
2021/12/19 09:36:54;;;;;;;13.60;11.95;;;;;;;16.58;26.82;101377.41;5069045;28;20439;-65
2021/12/19 09:39:22;;;;;;;16.52;12.45;;;;;;;16.17;27.29;101379.63;5068370;28;20514;-64
2021/12/19 09:41:55;;;;;;;15.43;11.57;;;;;;;15.79;27.80;101360.91;5068656;28;20509;-65
2021/12/19 09:44:22;;;;;;;15.85;12.60;;;;;;;17.09;26.38;101362.59;5069163;28;20410;-64
2021/12/19 09:46:51;;;;;;;15.90;11.90;;;;;;;17.90;25.64;101353.44;5068761;28;20410;-62
2021/12/19 09:49:20;;;;;;;13.07;10.95;;;;;;;23.45;19.97;101346.94;5068715;28;20402;-64
2021/12/19 09:51:48;;;;;;;14.60;12.57;;;;;;;26.49;16.83;101345.88;5069030;28;20419;-65
2021/12/19 09:54:15;;;;;;;14.50;12.67;;;;;;;28.09;15.59;101339.09;5068729;28;20498;-63
2021/12/19 09:56:44;;;;;;;12.63;9.90;;;;;;;28.49;15.10;101339.41;5068774;28;20494;-63
2021/12/19 09:59:14;;;;;;;12.07;10.75;;;;;;;28.84;14.59;101335.97;5068605;28;20489;-63
2021/12/19 10:01:41;;;;;;;12.95;10.98;;;;;;;29.92;13.53;101336.59;5068737;28;20498;-63
2021/12/19 10:04:30;;;;;;;14.17;12.47;;;;;;;29.56;13.55;101324.06;5070821;28;20486;-63
2021/12/19 10:07:07;;;;;;;16.10;13.52;;;;;;;29.62;13.96;101325.81;5070796;28;20481;-63
2021/12/19 10:09:36;;;;;;;17.52;15.23;;;;;;;27.76;15.16;101303.00;5071393;28;20789;-63
2021/12/19 10:12:35;;;;;;;17.27;15.57;;;;;;;26.26;16.44;101305.69;5072085;28;20406;-63
2021/12/19 10:15:06;;;;;;;15.60;12.35;;;;;;;23.59;18.59;101291.91;5072276;28;20410;-63
2021/12/19 10:17:34;;;;;;;15.65;13.65;;;;;;;24.81;17.68;101290.25;5072298;28;20499;-64
2021/12/19 10:20:03;;;;;;;13.82;11.82;;;;;;;21.59;20.78;101274.50;5072368;28;20411;-63
2021/12/19 10:22:32;;;;;;;16.52;13.60;;;;;;;21.22;21.62;101280.75;5072185;28;20427;-64
2021/12/19 10:25:11;;;;;;;20.33;17.60;;;;;;;22.37;20.58;101282.13;5072318;28;20445;-64
2021/12/19 10:27:40;;;;;;;16.33;13.98;;;;;;;24.85;18.07;101277.97;5071890;28;20526;-64
2021/12/19 10:30:16;;;;;;;17.15;14.85;;;;;;;23.88;19.07;101271.88;5072551;28;20564;-64
2021/12/19 10:32:55;;;;;;;16.42;12.43;;;;;;;24.93;18.14;101272.34;5065170;28;21310;-66
2021/12/19 10:35:24;;;;;;;15.60;12.95;;;;;;;26.03;17.38;101271.72;5056802;28;20398;-65
2021/12/19 10:37:51;;;;;;;16.15;13.00;;;;;;;26.90;16.55;101268.47;5071951;28;20430;-65
2021/12/19 10:40:37;;;;;;;13.32;11.60;;;;;;;25.29;17.47;101262.97;5071933;28;20410;-65
2021/12/19 10:43:07;;;;;;;13.98;12.07;;;;;;;25.76;17.14;101260.94;5071985;28;20557;-64
2021/12/19 10:45:36;;;;;;;13.90;12.50;;;;;;;26.52;16.66;101256.63;5071533;28;20410;-65
2021/12/19 10:48:10;;;;;;;13.60;11.68;;;;;;;26.85;16.27;101252.84;5071604;28;20414;-64
2021/12/19 10:50:50;;;;;;;13.77;12.37;;;;;;;27.25;16.19;101246.19;5071838;28;20410;-65
2021/12/19 10:53:18;;;;;;;12.75;11.35;;;;;;;27.04;16.47;101242.00;5071353;28;20412;-65
2021/12/19 10:55:47;;;;;;;14.05;12.55;;;;;;;27.54;15.59;101239.19;5071458;28;20411;-65
2021/12/19 10:58:30;;;;;;;14.23;12.77;;;;;;;26.33;16.92;101228.50;5071632;28;20509;-65
2021/12/19 11:01:05;;;;;;;15.07;12.95;;;;;;;26.67;16.71;101228.31;5071538;28;20418;-64
2021/12/19 11:03:39;;;;;;;13.10;10.68;;;;;;;25.64;17.13;101213.81;5071151;28;21026;-64
2021/12/19 11:06:18;;;;;;;13.37;11.07;;;;;;;25.63;17.23;101195.03;5071255;28;20415;-65
2021/12/19 11:08:46;;;;;;;11.30;10.07;;;;;;;25.54;17.39;101191.75;5071459;28;20485;-65
2021/12/19 11:11:29;;;;;;;13.45;12.15;;;;;;;25.98;17.39;101199.06;5071008;28;20472;-65
2021/12/19 11:13:57;;;;;;;15.02;13.43;;;;;;;25.77;17.71;101181.22;5070909;28;20415;-65
2021/12/19 11:16:24;;;;;;;15.88;14.18;;;;;;;26.01;17.22;101180.69;5071075;28;20413;-64
2021/12/19 11:18:52;;;;;;;14.70;12.38;;;;;;;24.73;18.29;101177.50;5071335;28;20477;-64
2021/12/19 11:21:19;;;;;;;21.02;16.63;;;;;;;24.92;18.55;101170.41;5071288;28;20422;-64
2021/12/19 11:23:46;;;;;;;19.55;17.48;;;;;;;24.76;18.51;101166.25;5070810;28;20434;-63
2021/12/19 11:26:14;;;;;;;13.63;12.32;;;;;;;23.82;19.37;101166.34;5070808;28;20505;-63
2021/12/19 11:28:41;;;;;;;12.57;11.38;;;;;;;22.92;20.49;101153.59;5070678;28;20505;-63
2021/12/19 11:31:10;;;;;;;17.25;13.18;;;;;;;22.80;20.73;101147.06;5071020;28;20482;-63
2021/12/19 11:33:47;;;;;;;14.73;13.23;;;;;;;22.19;21.49;101145.72;5064665;28;20971;-64
2021/12/19 11:36:16;;;;;;;14.38;12.38;;;;;;;21.53;22.10;101137.78;5061477;28;20493;-63
2021/12/19 11:38:45;;;;;;;11.33;10.23;;;;;;;20.20;23.17;101128.50;5070928;28;20421;-63
2021/12/19 11:41:12;;;;;;;12.32;10.98;;;;;;;20.03;24.00;101121.56;5070970;28;20498;-65
2021/12/19 11:43:42;;;;;;;15.30;12.75;;;;;;;19.50;24.47;101117.84;5070367;28;20438;-65
2021/12/19 11:46:17;;;;;;;18.48;14.48;;;;;;;18.30;26.06;101113.25;5070730;28;20472;-65
2021/12/19 11:48:45;;;;;;;16.02;14.05;;;;;;;18.39;26.44;101111.44;5070802;28;20411;-65
2021/12/19 11:51:19;;;;;;;16.00;13.25;;;;;;;17.47;27.75;101105.25;5053100;28;20464;-62
2021/12/19 11:53:47;;;;;;;12.25;10.95;;;;;;;17.21;27.76;101106.13;5070238;28;20418;-63
2021/12/19 11:56:16;;;;;;;23.63;19.63;;;;;;;16.52;28.54;101084.66;5070199;28;20409;-63
2021/12/19 11:58:46;;;;;;;15.60;13.98;;;;;;;15.93;30.13;101096.88;5070339;28;20419;-63
2021/12/19 12:01:21;;;;;;;13.65;12.25;;;;;;;15.39;30.62;101089.63;5070158;28;20499;-63
2021/12/19 12:03:54;;;;;;;17.63;15.77;;;;;;;15.79;30.45;101087.56;5070270;28;20426;-63
2021/12/19 12:06:28;;;;;;;17.60;14.40;;;;;;;14.99;31.67;101082.81;5070025;28;20503;-62
2021/12/19 12:09:25;;;;;;;13.68;12.18;;;;;;;14.78;31.91;101076.84;5070695;28;20407;-63
2021/12/19 12:12:20;;;;;;;14.63;12.77;;;;;;;14.48;32.69;101073.41;5070235;28;20446;-63
2021/12/19 12:15:05;;;;;;;14.38;11.80;;;;;;;14.56;32.40;101064.72;5069740;28;20447;-63
2021/12/19 12:17:37;;;;;;;12.75;11.45;;;;;;;14.36;32.91;101062.06;5069822;28;20779;-63
2021/12/19 12:20:17;;;;;;;39.25;24.58;;;;;;;14.25;33.30;101061.38;5069779;28;20407;-63